createdAt,value
2022-11-10T00:00:40.829Z,64.63
2022-11-10T00:06:06.294Z,63.89
2022-11-10T00:11:26.482Z,63.77
2022-11-10T00:17:02.085Z,63.22
2022-11-10T00:22:25.961Z,64.41
2022-11-10T00:27:46.482Z,66.10
2022-11-10T00:33:07.633Z,66.27
2022-11-10T00:38:28.364Z,66.13
2022-11-10T00:43:49.483Z,66.53
2022-11-10T00:49:16.833Z,66.85
2022-11-10T00:54:37.488Z,65.66
2022-11-10T00:59:58.026Z,64.79
2022-11-10T01:05:18.482Z,64.53
2022-11-10T01:10:39.223Z,64.98
2022-11-10T01:16:22.186Z,64.09
2022-11-10T01:21:51.819Z,64.04
2022-11-10T01:27:12.042Z,63.73
2022-11-10T01:32:32.536Z,64.46
2022-11-10T01:37:53.380Z,63.78
2022-11-10T01:43:17.096Z,64.05
2022-11-10T01:48:46.813Z,64.77
2022-11-10T01:54:22.164Z,63.26
2022-11-10T01:59:48.789Z,63.37
2022-11-10T02:05:09.735Z,62.55
2022-11-10T02:10:30.639Z,62.60
2022-11-10T02:15:51.144Z,62.63
2022-11-10T02:21:11.412Z,62.00
2022-11-10T02:26:31.923Z,61.97
2022-11-10T02:31:52.621Z,61.86
2022-11-10T02:37:12.861Z,61.53
2022-11-10T02:42:33.512Z,61.12
2022-11-10T02:47:53.960Z,62.09
2022-11-10T02:53:14.588Z,61.39
2022-11-10T02:58:34.923Z,60.70
2022-11-10T03:03:55.746Z,60.17
2022-11-10T03:09:16.295Z,60.97
2022-11-10T03:14:36.575Z,60.64
2022-11-10T03:19:56.895Z,61.63
2022-11-10T03:25:17.564Z,60.41
2022-11-10T03:30:38.457Z,60.53
2022-11-10T03:35:59.125Z,60.23
2022-11-10T03:41:20.731Z,60.17
2022-11-10T03:46:43.474Z,60.41
2022-11-10T03:52:04.096Z,60.01
2022-11-10T03:57:24.390Z,59.99
2022-11-10T04:02:44.858Z,60.44
2022-11-10T04:08:32.168Z,60.39
2022-11-10T04:14:11.123Z,60.02
2022-11-10T04:19:31.716Z,59.96
2022-11-10T04:24:52.232Z,60.94
2022-11-10T04:30:12.748Z,60.47
2022-11-10T04:35:33.131Z,59.96
2022-11-10T04:40:53.719Z,59.59
2022-11-10T04:46:22.314Z,59.67
2022-11-10T04:51:43.041Z,59.80
2022-11-10T04:57:03.751Z,59.21
2022-11-10T05:02:24.060Z,59.32
2022-11-10T05:07:48.264Z,58.61
2022-11-10T05:13:08.763Z,58.25
2022-11-10T05:18:29.424Z,58.03
2022-11-10T05:23:49.736Z,58.37
2022-11-10T05:29:09.963Z,58.35
2022-11-10T05:34:30.553Z,57.96
2022-11-10T05:39:51.246Z,57.60
2022-11-10T05:45:11.818Z,57.38
2022-11-10T05:50:33.067Z,57.93
2022-11-10T05:55:53.656Z,58.11
2022-11-10T06:01:17.300Z,58.25
2022-11-10T06:06:37.954Z,58.84
2022-11-10T06:11:58.640Z,59.45
2022-11-10T06:17:19.843Z,60.25
2022-11-10T06:22:40.744Z,61.09
2022-11-10T06:28:01.910Z,62.14
2022-11-10T06:33:22.737Z,62.73
2022-11-10T06:38:43.987Z,63.46
2022-11-10T06:44:04.603Z,64.02
2022-11-10T06:49:24.812Z,65.11
2022-11-10T06:54:45.309Z,65.57
2022-11-10T07:00:07.576Z,65.67
2022-11-10T07:05:28.195Z,65.94
2022-11-10T07:10:55.025Z,65.95
2022-11-10T07:16:20.411Z,66.24
2022-11-10T07:21:49.971Z,67.14
2022-11-10T07:27:10.901Z,66.94
2022-11-10T07:32:31.422Z,66.74
2022-11-10T07:37:51.996Z,67.48
2022-11-10T07:43:12.835Z,67.14
2022-11-10T07:48:33.347Z,66.32
2022-11-10T07:53:54.101Z,66.97
2022-11-10T07:59:14.727Z,66.76
2022-11-10T08:04:35.089Z,66.44
2022-11-10T08:09:55.603Z,66.24
2022-11-10T08:15:16.213Z,67.76
2022-11-10T08:20:36.877Z,67.12
2022-11-10T08:26:01.743Z,68.17
2022-11-10T08:31:22.288Z,67.13
2022-11-10T08:36:42.544Z,65.93
2022-11-10T08:42:02.960Z,65.29
2022-11-10T08:47:29.576Z,65.95
2022-11-10T08:52:50.295Z,64.53
2022-11-10T08:58:16.317Z,64.66
2022-11-10T09:03:37.053Z,63.95
2022-11-10T09:08:57.492Z,63.82
2022-11-10T09:14:17.815Z,64.02
2022-11-10T09:19:38.753Z,64.24
2022-11-10T09:24:59.364Z,64.37
2022-11-10T09:30:20.165Z,65.35
2022-11-10T09:35:41.274Z,64.56
2022-11-10T09:41:12.653Z,64.76
2022-11-10T09:46:40.047Z,64.16
2022-11-10T09:52:02.377Z,62.42
2022-11-10T09:57:26.008Z,61.26
2022-11-10T10:03:00.355Z,59.74
2022-11-10T10:08:50.745Z,59.93
2022-11-10T10:14:39.029Z,58.70
2022-11-10T10:20:10.148Z,57.61
2022-11-10T10:25:32.607Z,56.28
2022-11-10T10:30:55.152Z,55.83
2022-11-10T10:36:22.056Z,56.87
2022-11-10T10:41:46.853Z,59.38
2022-11-10T10:47:07.083Z,59.09
2022-11-10T10:52:33.952Z,57.74
2022-11-10T10:58:03.329Z,56.64
2022-11-10T11:03:46.676Z,57.87
2022-11-10T11:09:08.264Z,56.49
2022-11-10T11:14:30.816Z,55.15
2022-11-10T11:19:57.080Z,55.15
2022-11-10T11:25:34.230Z,55.87
2022-11-10T11:31:10.655Z,53.70
2022-11-10T11:36:34.228Z,55.89
2022-11-10T11:42:14.233Z,51.18
2022-11-10T11:47:45.444Z,50.14
2022-11-10T11:53:26.548Z,50.27
2022-11-10T11:58:57.482Z,50.67
2022-11-10T12:04:36.242Z,49.53
2022-11-10T12:10:15.988Z,49.42
2022-11-10T12:15:48.883Z,49.07
2022-11-10T12:21:29.848Z,56.71
2022-11-10T12:26:58.628Z,53.96
2022-11-10T12:32:28.395Z,50.91
2022-11-10T12:38:27.565Z,51.91
2022-11-10T12:44:08.299Z,56.04
2022-11-10T12:49:41.010Z,57.49
2022-11-10T12:55:01.550Z,55.96
2022-11-10T13:00:29.127Z,50.59
2022-11-10T13:05:56.151Z,53.65
2022-11-10T13:11:16.601Z,58.14
2022-11-10T13:16:42.713Z,59.41
2022-11-10T13:22:04.503Z,61.48
2022-11-10T13:27:47.059Z,62.45
2022-11-10T13:33:22.861Z,51.62
2022-11-10T13:38:45.208Z,56.13
2022-11-10T13:44:25.295Z,59.56
2022-11-10T13:49:59.767Z,60.95
2022-11-10T13:55:31.672Z,52.46
2022-11-10T14:01:18.628Z,51.37
2022-11-10T14:06:45.386Z,51.25
2022-11-10T14:12:22.171Z,51.77
2022-11-10T14:17:51.840Z,53.92
2022-11-10T14:23:26.136Z,55.18
2022-11-10T14:28:46.645Z,63.29
2022-11-10T14:34:15.121Z,56.47
2022-11-10T14:39:35.794Z,66.69
2022-11-10T14:45:14.701Z,70.88
2022-11-10T14:50:35.857Z,62.08
2022-11-10T14:55:56.639Z,62.70
2022-11-10T15:01:33.794Z,62.88
2022-11-10T15:06:55.118Z,63.20
2022-11-10T15:12:22.223Z,63.74
2022-11-10T15:17:50.587Z,63.76
2022-11-10T15:23:42.615Z,64.50
2022-11-10T15:29:29.425Z,65.15
2022-11-10T15:34:50.918Z,65.48
2022-11-10T15:40:41.032Z,66.64
2022-11-10T15:46:17.853Z,67.27
2022-11-10T15:51:39.351Z,68.85
2022-11-10T15:57:00.485Z,68.75
2022-11-10T16:02:24.252Z,68.43
2022-11-10T16:07:44.501Z,69.08
2022-11-10T16:13:04.963Z,69.24
2022-11-10T16:18:30.109Z,69.63
2022-11-10T16:23:50.898Z,67.35
2022-11-10T16:29:20.365Z,67.65
2022-11-10T16:34:40.665Z,67.75
2022-11-10T16:40:01.324Z,68.10
2022-11-10T16:45:29.972Z,68.17
2022-11-10T16:50:56.563Z,68.12
2022-11-10T16:56:18.602Z,67.52
2022-11-10T17:01:41.524Z,67.17
2022-11-10T17:07:02.232Z,65.45
2022-11-10T17:12:22.575Z,64.42
2022-11-10T17:17:50.431Z,63.50
2022-11-10T17:23:13.893Z,63.79
2022-11-10T17:28:34.297Z,64.45
2022-11-10T17:33:55.006Z,65.66
2022-11-10T17:39:16.832Z,66.39
2022-11-10T17:44:37.188Z,68.18
2022-11-10T17:49:57.988Z,68.86
2022-11-10T17:55:24.086Z,68.86
2022-11-10T18:00:45.499Z,69.38
2022-11-10T18:06:06.553Z,69.52
2022-11-10T18:11:27.045Z,69.88
2022-11-10T18:16:47.352Z,69.56
2022-11-10T18:22:07.952Z,68.41
2022-11-10T18:27:29.106Z,67.37
2022-11-10T18:32:49.303Z,66.33
2022-11-10T18:38:13.435Z,66.40
2022-11-10T18:43:34.807Z,66.37
2022-11-10T18:48:55.119Z,66.81
2022-11-10T18:54:15.971Z,66.60
2022-11-10T18:59:37.795Z,67.61
2022-11-10T19:05:04.464Z,67.90
2022-11-10T19:10:31.870Z,67.65
2022-11-10T19:15:52.081Z,68.30
2022-11-10T19:21:14.552Z,68.16
2022-11-10T19:26:35.007Z,75.01
2022-11-10T19:31:55.510Z,77.72
2022-11-10T19:37:16.029Z,78.04
2022-11-10T19:42:36.407Z,78.69
2022-11-10T19:47:57.359Z,78.76
2022-11-10T19:53:17.778Z,79.23
2022-11-10T19:58:39.960Z,79.45
2022-11-10T20:04:01.012Z,79.63
2022-11-10T20:09:21.651Z,79.80
2022-11-10T20:14:42.156Z,80.06
2022-11-10T20:20:02.767Z,79.95
2022-11-10T20:25:23.333Z,80.26
2022-11-10T20:30:44.552Z,80.36
2022-11-10T20:36:32.111Z,81.10
2022-11-10T20:41:55.356Z,81.20
2022-11-10T20:47:15.932Z,81.49
2022-11-10T20:52:36.487Z,81.39
2022-11-10T20:57:56.662Z,81.78
2022-11-10T21:03:17.377Z,81.81
2022-11-10T21:08:37.945Z,81.84
2022-11-10T21:13:58.442Z,82.07
2022-11-10T21:19:19.015Z,81.86
2022-11-10T21:24:39.884Z,82.01
2022-11-10T21:30:00.601Z,81.81
2022-11-10T21:35:21.048Z,81.27
2022-11-10T21:40:41.847Z,81.13
2022-11-10T21:46:02.268Z,81.13
2022-11-10T21:51:23.196Z,81.33
2022-11-10T21:56:43.491Z,81.28
2022-11-10T22:02:04.050Z,81.54
2022-11-10T22:07:24.611Z,81.30
2022-11-10T22:13:17.274Z,81.43
2022-11-10T22:18:38.123Z,81.29
2022-11-10T22:24:16.888Z,81.28
2022-11-10T22:29:43.721Z,81.65
2022-11-10T22:35:04.543Z,81.64
2022-11-10T22:40:43.425Z,81.32
2022-11-10T22:46:04.132Z,81.23
2022-11-10T22:51:26.164Z,81.31
2022-11-10T22:56:48.135Z,81.29
2022-11-10T23:02:15.536Z,81.43
2022-11-10T23:07:36.143Z,81.38
2022-11-10T23:12:56.907Z,81.36
2022-11-10T23:18:17.692Z,81.39
2022-11-10T23:23:39.495Z,81.12
2022-11-10T23:29:00.015Z,81.10
2022-11-10T23:34:20.883Z,81.38
2022-11-10T23:39:41.233Z,81.04
2022-11-10T23:45:01.841Z,81.30
2022-11-10T23:50:22.812Z,81.72
2022-11-10T23:55:43.723Z,81.74
